createdAt,value
2019-02-28T00:01:48.974Z,11.80
2019-02-28T00:04:18.487Z,13.43
2019-02-28T00:06:48.005Z,13.40
2019-02-28T00:09:17.596Z,13.58
2019-02-28T00:11:47.118Z,15.05
2019-02-28T00:14:16.634Z,13.65
2019-02-28T00:16:46.159Z,15.13
2019-02-28T00:19:15.692Z,13.72
2019-02-28T00:21:45.210Z,13.55
2019-02-28T00:24:14.730Z,14.43
2019-02-28T00:26:47.559Z,14.55
2019-02-28T00:29:15.474Z,14.65
2019-02-28T00:31:49.436Z,15.40
2019-02-28T00:34:16.299Z,14.87
2019-02-28T00:36:45.823Z,14.60
2019-02-28T00:39:16.318Z,15.33
2019-02-28T00:41:45.855Z,15.88
2019-02-28T00:44:15.383Z,16.13
2019-02-28T00:46:45.414Z,17.00
2019-02-28T00:49:15.987Z,15.80
2019-02-28T00:51:45.512Z,17.12
2019-02-28T00:54:15.027Z,16.73
2019-02-28T00:56:44.558Z,17.00
2019-02-28T00:59:14.155Z,18.10
2019-02-28T01:01:45.886Z,17.75
2019-02-28T01:04:14.888Z,18.17
2019-02-28T01:06:44.409Z,18.00
2019-02-28T01:09:13.937Z,19.32
2019-02-28T01:11:44.776Z,18.87
2019-02-28T01:14:14.679Z,19.23
2019-02-28T01:16:44.216Z,20.27
2019-02-28T01:19:13.743Z,20.57
2019-02-28T01:21:43.279Z,21.33
2019-02-28T01:24:12.794Z,23.45
2019-02-28T01:26:43.286Z,24.05
2019-02-28T01:29:13.549Z,24.98
2019-02-28T01:31:43.422Z,23.92
2019-02-28T01:34:13.030Z,23.40
2019-02-28T01:36:42.594Z,24.40
2019-02-28T01:39:12.106Z,24.60
2019-02-28T01:41:42.325Z,24.70
2019-02-28T01:44:13.264Z,23.98
2019-02-28T01:46:42.830Z,23.40
2019-02-28T01:49:12.343Z,24.30
2019-02-28T01:51:41.866Z,25.75
2019-02-28T01:54:11.393Z,25.12
2019-02-28T01:56:40.955Z,25.65
2019-02-28T01:59:10.478Z,25.20
2019-02-28T02:01:39.997Z,26.60
2019-02-28T02:04:12.555Z,25.82
2019-02-28T02:06:40.742Z,25.65
2019-02-28T02:09:11.037Z,24.92
2019-02-28T02:11:41.329Z,25.15
2019-02-28T02:14:11.796Z,26.23
2019-02-28T02:16:41.368Z,25.05
2019-02-28T02:19:10.909Z,26.70
2019-02-28T02:21:40.496Z,26.70
2019-02-28T02:24:10.020Z,26.45
2019-02-28T02:26:42.323Z,27.27
2019-02-28T02:29:11.723Z,27.37
2019-02-28T02:31:43.489Z,27.15
2019-02-28T02:34:12.498Z,27.82
2019-02-28T02:36:42.017Z,29.87
2019-02-28T02:39:16.390Z,27.85
2019-02-28T02:41:42.746Z,29.42
2019-02-28T02:44:12.263Z,29.55
2019-02-28T02:46:41.786Z,29.45
2019-02-28T02:49:18.487Z,30.57
2019-02-28T02:51:49.064Z,29.55
2019-02-28T02:54:19.624Z,30.00
2019-02-28T02:56:45.972Z,27.70
2019-02-28T02:59:15.503Z,28.73
2019-02-28T03:01:45.023Z,29.30
2019-02-28T03:04:21.680Z,30.52
2019-02-28T03:06:46.730Z,29.65
2019-02-28T03:09:16.309Z,31.42
2019-02-28T03:11:45.839Z,31.55
2019-02-28T03:14:17.223Z,31.20
2019-02-28T03:16:46.613Z,33.15
2019-02-28T03:19:16.159Z,33.75
2019-02-28T03:21:51.311Z,33.50
2019-02-28T03:24:16.898Z,35.20
2019-02-28T03:26:46.419Z,36.03
2019-02-28T03:29:15.989Z,36.13
2019-02-28T03:31:54.966Z,37.08
2019-02-28T03:34:16.721Z,37.42
2019-02-28T03:36:55.149Z,38.38
2019-02-28T03:39:24.202Z,40.25
2019-02-28T03:41:49.042Z,39.20
2019-02-28T03:44:21.753Z,41.28
2019-02-28T03:46:51.098Z,40.95
2019-02-28T03:49:20.610Z,40.88
2019-02-28T03:51:50.157Z,42.10
2019-02-28T03:54:19.672Z,41.88
2019-02-28T03:56:52.706Z,43.05
2019-02-28T03:59:20.413Z,43.35
2019-02-28T04:01:50.012Z,44.15
2019-02-28T04:04:19.556Z,43.80
2019-02-28T04:06:49.151Z,45.85
2019-02-28T04:09:18.694Z,45.88
2019-02-28T04:11:48.208Z,46.53
2019-02-28T04:14:17.737Z,49.53
2019-02-28T04:16:52.457Z,49.75
2019-02-28T04:19:22.625Z,46.98
2019-02-28T04:21:51.741Z,47.55
2019-02-28T04:24:21.309Z,51.02
2019-02-28T04:26:50.818Z,50.93
2019-02-28T04:29:20.350Z,48.37
2019-02-28T04:31:51.433Z,50.87
2019-02-28T04:34:21.095Z,50.30
2019-02-28T04:36:50.607Z,51.25
2019-02-28T04:39:22.847Z,50.88
2019-02-28T04:41:51.345Z,52.67
2019-02-28T04:44:20.860Z,53.17
2019-02-28T04:46:50.373Z,51.48
2019-02-28T04:49:22.695Z,52.15
2019-02-28T04:51:51.110Z,52.88
2019-02-28T04:54:20.639Z,52.60
2019-02-28T04:56:50.162Z,54.20
2019-02-28T04:59:19.693Z,54.00
2019-02-28T05:01:49.228Z,53.20
2019-02-28T05:04:18.762Z,54.23
2019-02-28T05:06:48.285Z,54.42
2019-02-28T05:09:17.819Z,52.23
2019-02-28T05:11:47.328Z,53.35
2019-02-28T05:14:16.865Z,53.05
2019-02-28T05:16:47.448Z,52.05
2019-02-28T05:19:17.591Z,55.08
2019-02-28T05:21:47.107Z,53.35
2019-02-28T05:24:16.626Z,55.78
2019-02-28T05:26:46.136Z,54.55
2019-02-28T05:29:15.675Z,56.10
2019-02-28T05:31:45.213Z,55.85
2019-02-28T05:34:16.002Z,54.33
2019-02-28T05:36:45.995Z,54.15
2019-02-28T05:39:15.531Z,55.67
2019-02-28T05:41:48.931Z,52.83
2019-02-28T05:44:16.332Z,53.20
2019-02-28T05:46:45.854Z,54.90
2019-02-28T05:49:15.394Z,53.27
2019-02-28T05:51:44.923Z,53.80
2019-02-28T05:54:16.969Z,53.25
2019-02-28T05:56:45.685Z,53.75
2019-02-28T05:59:15.216Z,51.50
2019-02-28T06:01:47.088Z,52.40
2019-02-28T06:04:15.956Z,51.35
2019-02-28T06:06:45.480Z,53.40
2019-02-28T06:09:15.040Z,50.10
2019-02-28T06:11:44.563Z,50.98
2019-02-28T06:14:14.078Z,53.10
2019-02-28T06:16:46.888Z,52.43
2019-02-28T06:19:14.840Z,50.85
2019-02-28T06:21:44.370Z,53.20
2019-02-28T06:24:13.871Z,49.95
2019-02-28T06:26:43.391Z,50.60
2019-02-28T06:29:12.903Z,54.20
2019-02-28T06:31:45.546Z,56.28
2019-02-28T06:34:13.642Z,57.50
2019-02-28T06:36:43.191Z,55.52
2019-02-28T06:39:12.723Z,57.70
2019-02-28T06:41:42.261Z,55.88
2019-02-28T06:44:11.799Z,57.30
2019-02-28T06:46:41.335Z,56.85
2019-02-28T06:49:10.863Z,57.33
2019-02-28T06:51:40.396Z,59.55
2019-02-28T06:54:09.929Z,59.40
2019-02-28T06:56:39.467Z,59.67
2019-02-28T06:59:08.976Z,57.70
2019-02-28T07:01:38.502Z,59.27
2019-02-28T07:04:08.018Z,61.77
2019-02-28T07:06:37.542Z,61.00
2019-02-28T07:09:07.387Z,59.70
2019-02-28T07:11:36.930Z,60.12
2019-02-28T07:14:06.461Z,60.65
2019-02-28T07:16:37.951Z,60.05
2019-02-28T07:19:07.218Z,61.67
2019-02-28T07:21:42.904Z,59.50
2019-02-28T07:24:08.751Z,60.48
2019-02-28T07:26:38.285Z,62.25
2019-02-28T07:29:11.113Z,62.15
2019-02-28T07:31:39.021Z,64.22
2019-02-28T07:34:08.559Z,63.17
2019-02-28T07:36:38.100Z,63.52
2019-02-28T07:39:07.775Z,61.92
2019-02-28T07:41:37.298Z,85.38
2019-02-28T07:44:06.829Z,67.90
2019-02-28T07:46:41.908Z,65.78
2019-02-28T07:49:07.567Z,63.58
2019-02-28T07:51:37.113Z,66.60
2019-02-28T07:54:06.700Z,66.92
2019-02-28T07:56:42.625Z,65.05
2019-02-28T07:59:07.442Z,64.65
2019-02-28T08:01:36.958Z,65.05
2019-02-28T08:04:06.479Z,66.97
2019-02-28T08:06:36.309Z,65.22
2019-02-28T08:09:16.444Z,66.60
2019-02-28T08:11:45.942Z,65.55
2019-02-28T08:14:15.466Z,65.83
2019-02-28T08:16:45.015Z,67.20
2019-02-28T08:19:14.548Z,66.53
2019-02-28T08:21:49.414Z,64.55
2019-02-28T08:24:15.340Z,64.83
2019-02-28T08:26:44.890Z,67.73
2019-02-28T08:29:14.509Z,63.30
2019-02-28T08:31:44.214Z,63.75
2019-02-28T08:34:13.760Z,64.67
2019-02-28T08:36:43.801Z,64.95
2019-02-28T08:39:19.032Z,66.53
2019-02-28T08:41:49.659Z,67.00
2019-02-28T08:44:22.768Z,67.10
2019-02-28T08:46:50.773Z,66.10
2019-02-28T08:49:20.320Z,64.97
2019-02-28T08:51:49.927Z,60.33
2019-02-28T08:54:19.478Z,61.20
2019-02-28T08:56:49.765Z,62.73
2019-02-28T08:59:22.564Z,61.13
2019-02-28T09:01:51.520Z,60.65
2019-02-28T09:04:21.095Z,62.73
2019-02-28T09:06:50.659Z,60.70
2019-02-28T09:09:20.394Z,59.20
2019-02-28T09:11:53.149Z,61.37
2019-02-28T09:14:22.304Z,59.10
2019-02-28T09:16:51.912Z,59.00
2019-02-28T09:19:21.562Z,59.77
2019-02-28T09:21:52.914Z,61.00
2019-02-28T09:24:22.343Z,60.43
2019-02-28T09:26:51.903Z,58.87
2019-02-28T09:29:22.239Z,59.07
2019-02-28T09:31:52.040Z,60.28
2019-02-28T09:34:21.777Z,59.97
2019-02-28T09:36:55.247Z,58.42
2019-02-28T09:39:22.574Z,58.87
2019-02-28T09:41:52.119Z,57.70
2019-02-28T09:44:21.688Z,58.13
2019-02-28T09:46:51.720Z,57.55
2019-02-28T09:49:21.214Z,55.98
2019-02-28T09:51:50.726Z,58.08
2019-02-28T09:54:21.383Z,58.67
2019-02-28T09:56:51.790Z,58.33
2019-02-28T09:59:21.702Z,58.50
2019-02-28T10:02:00.914Z,55.97
2019-02-28T10:04:23.227Z,56.07
2019-02-28T10:06:53.090Z,57.80
2019-02-28T10:09:23.173Z,54.93
2019-02-28T10:11:53.097Z,57.90
2019-02-28T10:14:25.624Z,57.75
2019-02-28T10:16:56.622Z,57.17
2019-02-28T10:19:28.139Z,54.57
2019-02-28T10:22:00.464Z,54.80
2019-02-28T10:24:31.475Z,57.13
2019-02-28T10:27:03.423Z,56.20
2019-02-28T10:29:32.616Z,57.60
2019-02-28T10:32:02.268Z,59.27
2019-02-28T10:34:36.446Z,57.43
2019-02-28T10:37:07.029Z,59.42
2019-02-28T10:39:36.783Z,58.23
2019-02-28T10:42:06.294Z,56.77
2019-02-28T10:44:41.349Z,58.92
2019-02-28T10:47:11.087Z,58.92
2019-02-28T10:49:48.796Z,59.03
2019-02-28T10:52:19.375Z,58.75
2019-02-28T10:54:49.375Z,56.27
2019-02-28T10:57:18.993Z,60.50
2019-02-28T10:59:48.634Z,59.83
2019-02-28T11:02:19.962Z,59.60
2019-02-28T11:04:49.541Z,58.43
2019-02-28T11:07:19.067Z,59.50
2019-02-28T11:09:48.671Z,59.88
2019-02-28T11:12:20.318Z,59.48
2019-02-28T11:14:49.432Z,60.43
2019-02-28T11:17:18.974Z,62.27
2019-02-28T11:19:52.003Z,57.67
2019-02-28T11:22:20.306Z,62.03
2019-02-28T11:24:50.160Z,63.13
2019-02-28T11:27:22.851Z,63.68
2019-02-28T11:29:55.573Z,62.20
2019-02-28T11:32:26.404Z,61.92
2019-02-28T11:34:59.577Z,61.68
2019-02-28T11:37:29.113Z,60.43
2019-02-28T11:39:58.659Z,60.70
2019-02-28T11:42:34.351Z,62.97
2019-02-28T11:45:03.971Z,65.07
2019-02-28T11:47:34.944Z,62.60
2019-02-28T11:50:07.681Z,59.50
2019-02-28T11:52:36.277Z,61.63
2019-02-28T11:55:07.043Z,62.13
2019-02-28T11:57:37.702Z,63.55
2019-02-28T14:38:58.581Z,57.17
2019-02-28T14:41:31.779Z,58.83
2019-02-28T14:43:59.434Z,58.20
2019-02-28T14:46:28.997Z,55.45
2019-02-28T14:48:58.546Z,56.73
2019-02-28T14:51:28.571Z,58.37
2019-02-28T14:53:58.939Z,59.03
2019-02-28T14:56:28.485Z,57.23
2019-02-28T14:58:58.131Z,60.80
2019-02-28T15:01:27.696Z,58.03
2019-02-28T15:03:57.306Z,59.67
2019-02-28T15:06:29.607Z,57.10
2019-02-28T15:08:58.201Z,56.50
2019-02-28T15:11:28.645Z,58.75
2019-02-28T15:13:58.213Z,57.10
2019-02-28T15:16:29.568Z,56.40
2019-02-28T15:19:00.660Z,57.35
2019-02-28T15:21:30.224Z,56.45
2019-02-28T15:23:59.863Z,56.28
2019-02-28T15:26:32.156Z,57.13
2019-02-28T15:29:00.786Z,57.30
2019-02-28T15:31:30.384Z,56.77
2019-02-28T15:34:02.242Z,57.05
2019-02-28T15:36:32.588Z,55.90
2019-02-28T15:39:02.155Z,57.35
2019-02-28T15:41:33.703Z,56.03
2019-02-28T15:44:04.402Z,58.58
2019-02-28T15:46:35.904Z,58.10
2019-02-28T15:49:06.456Z,58.43
2019-02-28T15:51:37.505Z,57.00
2019-02-28T15:54:07.069Z,57.87
2019-02-28T15:56:36.662Z,60.38
2019-02-28T15:59:06.361Z,57.33
2019-02-28T16:01:36.001Z,57.83
2019-02-28T16:04:05.672Z,57.83
2019-02-28T16:06:35.210Z,57.75
2019-02-28T16:09:07.465Z,56.85
2019-02-28T16:11:41.025Z,58.20
2019-02-28T16:14:14.528Z,61.13
2019-02-28T16:16:40.946Z,61.53
2019-02-28T16:19:11.883Z,59.95
2019-02-28T16:21:44.801Z,60.23
2019-02-28T16:24:16.287Z,58.90
2019-02-28T16:26:45.819Z,58.75
2019-02-28T16:29:20.404Z,59.27
2019-02-28T16:31:46.694Z,61.30
2019-02-28T16:34:16.238Z,60.17
2019-02-28T16:36:45.865Z,59.98
2019-02-28T16:39:16.898Z,61.90
2019-02-28T16:41:46.793Z,60.05
2019-02-28T16:44:16.364Z,58.95
2019-02-28T16:46:46.434Z,62.38
2019-02-28T16:49:17.345Z,59.77
2019-02-28T16:51:46.916Z,59.40
2019-02-28T16:54:19.408Z,59.87
2019-02-28T16:56:47.727Z,58.33
2019-02-28T16:59:17.304Z,59.50
2019-02-28T17:01:46.850Z,61.70
2019-02-28T17:04:17.209Z,59.65
2019-02-28T17:06:48.527Z,59.75
2019-02-28T17:09:22.174Z,59.33
2019-02-28T17:11:58.926Z,59.70
2019-02-28T17:14:28.535Z,58.40
2019-02-28T17:17:03.918Z,62.20
2019-02-28T17:19:33.475Z,61.90
2019-02-28T17:22:03.464Z,60.30
2019-02-28T17:24:33.013Z,58.80
2019-02-28T17:27:25.390Z,57.58
2019-02-28T17:30:00.438Z,59.37
2019-02-28T17:32:31.216Z,60.57
2019-02-28T17:35:01.820Z,59.95
2019-02-28T17:37:32.137Z,58.80
2019-02-28T17:40:01.745Z,57.15
2019-02-28T17:42:31.757Z,57.17
2019-02-28T17:45:15.506Z,56.70
2019-02-28T17:48:52.632Z,58.80
2019-02-28T17:52:01.609Z,60.03
2019-02-28T17:55:12.749Z,60.30
2019-02-28T17:58:13.419Z,60.57
2019-02-28T18:01:38.717Z,57.76
2019-02-28T18:04:36.201Z,55.58
2019-02-28T18:07:45.738Z,59.40
2019-02-28T18:11:11.667Z,56.80
2019-02-28T18:14:22.717Z,58.30
2019-02-28T18:17:32.384Z,58.33
2019-02-28T18:20:28.991Z,59.53
2019-02-28T18:23:37.854Z,57.88
2019-02-28T18:26:39.440Z,66.50
2019-02-28T18:29:38.364Z,65.75
2019-02-28T18:32:07.902Z,66.62
2019-02-28T18:34:37.903Z,66.77
2019-02-28T18:37:07.509Z,66.75
2019-02-28T18:39:37.046Z,65.15
2019-02-28T18:42:06.583Z,63.90
2019-02-28T18:44:37.473Z,63.75
2019-02-28T18:47:07.604Z,64.72
2019-02-28T18:49:37.196Z,63.65
2019-02-28T18:52:06.754Z,65.40
2019-02-28T18:54:36.378Z,68.47
2019-02-28T18:57:05.982Z,69.15
2019-02-28T18:59:35.528Z,65.03
2019-02-28T19:02:05.220Z,67.80
2019-02-28T19:04:34.768Z,71.65
2019-02-28T19:07:04.332Z,72.05
2019-02-28T19:09:33.884Z,76.75
2019-02-28T19:12:03.418Z,75.10
2019-02-28T19:14:32.961Z,70.10
2019-02-28T19:17:02.508Z,72.87
2019-02-28T19:19:32.055Z,75.55
2019-02-28T19:22:01.585Z,74.13
2019-02-28T19:24:31.120Z,66.60
2019-02-28T19:27:00.653Z,65.10
2019-02-28T19:29:31.167Z,63.25
2019-02-28T19:32:00.729Z,59.73
2019-02-28T19:34:30.336Z,57.35
2019-02-28T19:36:59.867Z,55.98
2019-02-28T19:39:30.357Z,55.35
2019-02-28T19:41:59.943Z,55.83
2019-02-28T19:44:29.463Z,56.18
2019-02-28T19:46:59.075Z,55.03
2019-02-28T19:52:08.859Z,54.80
2019-02-28T19:54:38.389Z,53.98
2019-02-28T19:57:07.912Z,56.48
2019-02-28T19:59:37.441Z,54.42
2019-02-28T20:02:06.987Z,52.70
2019-02-28T20:04:36.574Z,52.23
2019-02-28T20:07:06.148Z,51.93
2019-02-28T20:09:35.684Z,51.98
2019-02-28T20:12:05.300Z,53.20
2019-02-28T20:14:34.832Z,51.83
2019-02-28T20:17:04.465Z,50.53
2019-02-28T20:19:34.019Z,48.40
2019-02-28T20:22:03.588Z,48.60
2019-02-28T20:24:33.144Z,48.60
2019-02-28T20:27:02.679Z,48.20
2019-02-28T20:29:32.303Z,46.70
2019-02-28T20:32:01.848Z,47.93
2019-02-28T20:34:31.364Z,49.67
2019-02-28T20:37:00.915Z,48.57
2019-02-28T20:39:30.614Z,45.50
2019-02-28T20:42:00.165Z,48.65
2019-02-28T20:44:29.686Z,45.48
2019-02-28T20:46:59.209Z,46.93
2019-02-28T20:49:28.743Z,45.80
2019-02-28T20:51:58.278Z,46.90
2019-02-28T20:54:27.841Z,45.20
2019-02-28T20:56:57.657Z,44.80
2019-02-28T20:59:27.207Z,46.40
2019-02-28T21:01:57.730Z,45.23
2019-02-28T21:04:27.274Z,46.64
2019-02-28T21:06:56.821Z,46.55
2019-02-28T21:09:27.132Z,45.45
2019-02-28T21:11:56.671Z,44.60
2019-02-28T21:14:26.277Z,46.80
2019-02-28T21:16:55.913Z,44.23
2019-02-28T21:19:25.431Z,42.70
2019-02-28T21:21:54.983Z,42.13
2019-02-28T21:24:24.530Z,42.93
2019-02-28T21:26:54.095Z,42.03
2019-02-28T21:29:23.613Z,41.73
2019-02-28T21:31:53.174Z,43.28
2019-02-28T21:34:22.792Z,42.60
2019-02-28T21:36:52.360Z,41.60
2019-02-28T21:39:23.373Z,40.67
2019-02-28T21:41:53.346Z,42.10
2019-02-28T21:44:22.941Z,43.83
2019-02-28T21:46:52.502Z,44.50
2019-02-28T21:49:22.048Z,43.52
2019-02-28T21:51:51.648Z,43.80
2019-02-28T21:54:21.175Z,43.65
2019-02-28T21:56:50.805Z,42.40
2019-02-28T21:59:20.477Z,40.85
2019-02-28T22:01:50.079Z,43.65
2019-02-28T22:04:34.304Z,44.48
2019-02-28T22:07:03.898Z,48.38
2019-02-28T22:09:33.445Z,47.62
2019-02-28T22:12:02.979Z,48.77
2019-02-28T22:14:32.503Z,47.10
2019-02-28T22:17:02.066Z,50.37
2019-02-28T22:19:31.595Z,49.10
2019-02-28T22:22:01.369Z,51.57
2019-02-28T22:24:30.908Z,49.70
2019-02-28T22:27:00.585Z,53.60
2019-02-28T22:29:30.319Z,56.48
2019-02-28T22:32:24.504Z,56.53
2019-02-28T22:35:04.552Z,58.83
2019-02-28T22:37:34.103Z,58.25
2019-02-28T22:40:04.102Z,59.27
2019-02-28T22:42:33.664Z,58.02
2019-02-28T22:45:03.358Z,59.13
2019-02-28T22:47:33.219Z,61.60
2019-02-28T22:50:02.792Z,58.05
2019-02-28T22:52:32.332Z,61.88
2019-02-28T22:55:03.133Z,57.87
2019-02-28T22:57:32.699Z,60.10
2019-02-28T23:00:02.644Z,56.63
2019-02-28T23:02:33.982Z,55.60
2019-02-28T23:05:03.550Z,56.90
2019-02-28T23:07:33.195Z,57.47
2019-02-28T23:10:02.730Z,53.33
2019-02-28T23:12:32.304Z,51.37
2019-02-28T23:15:01.872Z,51.47
2019-02-28T23:17:33.066Z,50.33
2019-02-28T23:20:02.694Z,50.20
2019-02-28T23:22:32.292Z,50.70
2019-02-28T23:25:01.856Z,50.92
2019-02-28T23:27:31.385Z,49.55
2019-02-28T23:30:30.187Z,50.25
2019-02-28T23:33:05.719Z,48.97
2019-02-28T23:35:41.028Z,48.65
2019-02-28T23:38:10.520Z,47.07
2019-02-28T23:40:40.123Z,47.73
2019-02-28T23:43:09.641Z,47.33
2019-02-28T23:45:39.182Z,48.80
2019-02-28T23:48:08.725Z,49.95
2019-02-28T23:50:38.331Z,50.47
2019-02-28T23:53:07.896Z,52.03
2019-02-28T23:55:37.454Z,51.90
2019-02-28T23:58:07.022Z,52.53
